createdAt,value
2022-11-05T00:00:36.432Z,101512.66
2022-11-05T00:03:21.498Z,101522.63
2022-11-05T00:06:08.230Z,101524.53
2022-11-05T00:08:53.324Z,101522.06
2022-11-05T00:11:39.674Z,101525.03
2022-11-05T00:14:24.700Z,101535.66
2022-11-05T00:16:51.063Z,101522.84
2022-11-05T00:19:17.478Z,101524.16
2022-11-05T00:22:02.146Z,101531.34
2022-11-05T00:24:47.189Z,101534.97
2022-11-05T00:27:13.546Z,101545.16
2022-11-05T00:29:39.891Z,101552.69
2022-11-05T00:32:06.395Z,101551.97
2022-11-05T00:34:32.839Z,101537.81
2022-11-05T00:36:59.203Z,101547.56
2022-11-05T00:39:25.623Z,101556.81
2022-11-05T00:42:11.958Z,101561.66
2022-11-05T00:44:56.938Z,101562.38
2022-11-05T00:47:41.724Z,101562.50
2022-11-05T00:50:10.467Z,101564.94
2022-11-05T00:52:55.637Z,101573.84
2022-11-05T00:55:30.477Z,101577.28
2022-11-05T00:57:57.801Z,101573.16
2022-11-05T01:00:26.497Z,101585.50
2022-11-05T01:02:53.025Z,101584.91
2022-11-05T01:05:20.104Z,101587.50
2022-11-05T01:07:48.681Z,101591.28
2022-11-05T01:10:15.096Z,101582.59
2022-11-05T01:12:41.497Z,101595.16
2022-11-05T01:15:08.503Z,101590.72
2022-11-05T01:17:34.891Z,101595.31
2022-11-05T01:20:01.274Z,101593.19
2022-11-05T01:22:27.640Z,101591.66
2022-11-05T01:24:53.978Z,101594.81
2022-11-05T01:27:20.363Z,101583.00
2022-11-05T01:29:46.740Z,101586.50
2022-11-05T01:32:13.153Z,101591.69
2022-11-05T01:34:39.554Z,101595.44
2022-11-05T01:37:05.941Z,101596.16
2022-11-05T01:39:32.314Z,101604.94
2022-11-05T01:41:58.875Z,101607.78
2022-11-05T01:45:01.867Z,101606.84
2022-11-05T01:47:31.148Z,101604.50
2022-11-05T01:49:59.506Z,101591.94
2022-11-05T01:52:26.982Z,101595.22
2022-11-05T01:54:53.373Z,101592.63
2022-11-05T01:57:19.912Z,101453.91
2022-11-05T01:59:49.992Z,101534.00
2022-11-05T02:02:16.414Z,101577.78
2022-11-05T02:04:51.079Z,101551.78
2022-11-05T02:07:17.810Z,101548.28
2022-11-05T02:09:49.815Z,101495.94
2022-11-05T02:12:16.347Z,101486.94
2022-11-05T02:14:42.768Z,101516.66
2022-11-05T02:17:21.145Z,101540.78
2022-11-05T02:20:22.604Z,101581.88
2022-11-05T02:23:03.830Z,101576.72
2022-11-05T02:25:52.078Z,101582.09
2022-11-05T02:28:55.845Z,101578.13
2022-11-05T02:31:31.287Z,101547.00
2022-11-05T02:34:09.263Z,101565.50
2022-11-05T02:36:49.425Z,101580.13
2022-11-05T02:39:42.682Z,101543.72
2022-11-05T02:42:43.747Z,101574.19
2022-11-05T02:45:11.212Z,101580.16
2022-11-05T02:47:40.454Z,101581.66
2022-11-05T02:50:30.779Z,101582.59
2022-11-05T02:53:16.805Z,101571.72
2022-11-05T02:55:49.176Z,101556.25
2022-11-05T02:58:15.552Z,101563.28
2022-11-05T03:00:52.011Z,101574.63
2022-11-05T03:03:32.065Z,101568.78
2022-11-05T03:06:07.888Z,101572.19
2022-11-05T03:08:47.873Z,101576.16
2022-11-05T03:11:16.130Z,101549.34
2022-11-05T03:13:51.267Z,101562.13
2022-11-05T03:16:34.401Z,101552.72
2022-11-05T03:19:14.943Z,101550.16
2022-11-05T03:21:56.307Z,101566.09
2022-11-05T03:24:29.281Z,101514.59
2022-11-05T03:26:58.593Z,101584.22
2022-11-05T03:29:28.990Z,101582.13
2022-11-05T03:31:56.852Z,101547.09
2022-11-05T03:34:28.064Z,101509.88
2022-11-05T03:36:56.234Z,101531.28
2022-11-05T03:39:31.224Z,101550.97
2022-11-05T03:41:58.356Z,101510.84
2022-11-05T03:44:31.448Z,101576.97
2022-11-05T03:47:03.810Z,101548.16
2022-11-05T03:49:35.682Z,101458.28
2022-11-05T03:52:18.471Z,101458.66
2022-11-05T03:54:45.810Z,101574.88
2022-11-05T03:57:29.494Z,101556.25
2022-11-05T03:59:55.907Z,101527.78
2022-11-05T04:02:24.080Z,101586.91
2022-11-05T04:04:51.232Z,101567.81
2022-11-05T04:07:36.177Z,101568.78
2022-11-05T04:10:21.155Z,101558.69
2022-11-05T04:13:06.325Z,101580.34
2022-11-05T04:15:55.452Z,101573.94
2022-11-05T04:18:21.959Z,101588.19
2022-11-05T04:21:06.891Z,101587.84
2022-11-05T04:23:52.032Z,101598.50
2022-11-05T04:26:23.140Z,101576.72
2022-11-05T04:29:11.615Z,101618.31
2022-11-05T04:31:38.211Z,101593.56
2022-11-05T04:34:04.806Z,101620.56
2022-11-05T04:36:31.347Z,101617.88
2022-11-05T04:38:57.702Z,101575.81
2022-11-05T04:41:24.089Z,101575.09
2022-11-05T04:43:50.497Z,101581.66
2022-11-05T04:46:16.865Z,101586.22
2022-11-05T04:48:43.228Z,101599.56
2022-11-05T04:51:09.649Z,101601.00
2022-11-05T04:53:36.010Z,101540.56
2022-11-05T04:56:14.482Z,101595.59
2022-11-05T04:58:41.790Z,101604.50
2022-11-05T05:01:20.139Z,101565.03
2022-11-05T05:03:48.156Z,101599.25
2022-11-05T05:06:14.909Z,101581.66
2022-11-05T05:08:41.447Z,101607.66
2022-11-05T05:11:09.416Z,101580.94
2022-11-05T05:13:35.831Z,101584.81
2022-11-05T05:16:07.194Z,101593.84
2022-11-05T05:18:34.021Z,101606.59
2022-11-05T05:21:19.519Z,101603.00
2022-11-05T05:23:47.920Z,101603.09
2022-11-05T05:26:15.671Z,101528.69
2022-11-05T05:28:42.082Z,101585.41
2022-11-05T05:31:09.117Z,101601.56
2022-11-05T05:33:35.621Z,101607.09
2022-11-05T05:36:07.026Z,101585.63
2022-11-05T05:38:36.480Z,101606.97
2022-11-05T05:41:02.940Z,101617.63
2022-11-05T05:43:31.051Z,101609.19
2022-11-05T05:46:01.784Z,101559.28
2022-11-05T05:48:28.156Z,101597.59
2022-11-05T05:50:54.640Z,101630.50
2022-11-05T05:53:21.000Z,101604.38
2022-11-05T05:55:47.388Z,101624.88
2022-11-05T05:58:13.788Z,101587.03
2022-11-05T06:00:40.144Z,101625.00
2022-11-05T06:03:06.724Z,101608.84
2022-11-05T06:05:33.169Z,101655.72
2022-11-05T06:07:59.582Z,101616.81
2022-11-05T06:10:29.067Z,101550.75
2022-11-05T06:12:55.609Z,101658.06
2022-11-05T06:15:22.041Z,101668.38
2022-11-05T06:17:48.430Z,101642.47
2022-11-05T06:20:14.871Z,101656.88
2022-11-05T06:22:41.312Z,101659.31
2022-11-05T06:25:08.321Z,101649.56
2022-11-05T06:27:36.713Z,101634.09
2022-11-05T06:30:06.659Z,101640.91
2022-11-05T06:32:40.086Z,101638.66
2022-11-05T06:35:06.958Z,101627.75
2022-11-05T06:37:36.076Z,101554.72
2022-11-05T06:43:22.844Z,101526.97
2022-11-05T06:45:59.753Z,101522.38
2022-11-05T06:48:26.398Z,101605.47
2022-11-05T06:50:53.818Z,101629.47
2022-11-05T06:53:23.359Z,101588.03
2022-11-05T06:55:49.874Z,101529.44
2022-11-05T06:58:16.365Z,101579.28
2022-11-05T07:00:45.471Z,101536.44
2022-11-05T07:03:20.389Z,101543.84
2022-11-05T07:05:49.051Z,101589.59
2022-11-05T07:08:21.327Z,101593.59
2022-11-05T07:10:48.379Z,101646.97
2022-11-05T07:13:17.630Z,101588.78
2022-11-05T07:16:07.491Z,101547.22
2022-11-05T07:18:52.983Z,101550.28
2022-11-05T07:21:24.520Z,101576.72
2022-11-05T07:23:50.982Z,101576.84
2022-11-05T07:26:17.401Z,101607.19
2022-11-05T07:28:43.784Z,101646.06
2022-11-05T07:31:10.183Z,101644.66
2022-11-05T07:33:36.936Z,101651.81
2022-11-05T07:36:03.627Z,101612.69
2022-11-05T07:38:30.690Z,101589.41
2022-11-05T07:40:59.491Z,101634.28
2022-11-05T07:43:25.879Z,101629.69
2022-11-05T07:45:52.312Z,101615.50
2022-11-05T07:48:18.737Z,101623.00
2022-11-05T07:50:45.160Z,101688.75
2022-11-05T07:53:14.041Z,101557.75
2022-11-05T07:55:41.593Z,101685.94
2022-11-05T07:58:08.132Z,101648.19
2022-11-05T08:00:47.470Z,101609.06
2022-11-05T08:03:16.066Z,101561.28
2022-11-05T08:05:46.668Z,101575.66
2022-11-05T08:08:16.002Z,101554.47
2022-11-05T08:10:42.931Z,101569.09
2022-11-05T08:13:10.097Z,101604.22
2022-11-05T08:15:52.675Z,101571.88
2022-11-05T08:18:22.727Z,101652.50
2022-11-05T08:20:54.095Z,101688.53
2022-11-05T08:23:52.867Z,101686.06
2022-11-05T08:26:22.825Z,101563.22
2022-11-05T08:28:52.278Z,101562.09
2022-11-05T08:31:21.135Z,101574.75
2022-11-05T08:33:48.731Z,101566.91
2022-11-05T08:36:17.323Z,101645.41
2022-11-05T08:38:45.992Z,101576.25
2022-11-05T08:41:13.496Z,101683.91
2022-11-05T08:43:48.565Z,101688.00
2022-11-05T08:46:15.001Z,101546.03
2022-11-05T08:48:41.445Z,101566.72
2022-11-05T08:51:12.680Z,101674.03
2022-11-05T08:53:39.059Z,101608.72
2022-11-05T08:56:05.696Z,101677.81
2022-11-05T08:58:32.788Z,101675.50
2022-11-05T09:01:04.754Z,101690.41
2022-11-05T09:03:31.713Z,101672.00
2022-11-05T09:05:58.058Z,101696.03
2022-11-05T09:08:24.437Z,101677.19
2022-11-05T09:10:53.784Z,101689.31
2022-11-05T09:13:33.406Z,101570.75
2022-11-05T09:16:01.876Z,101568.94
2022-11-05T09:18:45.928Z,101578.19
2022-11-05T09:21:12.338Z,101613.91
2022-11-05T09:23:39.273Z,101654.31
2022-11-05T09:26:05.796Z,101685.28
2022-11-05T09:28:33.111Z,101676.19
2022-11-05T09:31:00.487Z,101632.66
2022-11-05T09:33:26.986Z,101663.41
2022-11-05T09:35:53.649Z,101604.50
2022-11-05T09:38:20.204Z,101633.25
2022-11-05T09:41:07.223Z,101675.22
2022-11-05T09:43:51.898Z,101682.56
2022-11-05T09:46:19.358Z,101683.59
2022-11-05T09:48:48.621Z,101688.84
2022-11-05T09:51:22.403Z,101683.44
2022-11-05T09:53:50.535Z,101692.66
2022-11-05T09:56:36.831Z,101699.63
2022-11-05T09:59:06.982Z,101686.91
2022-11-05T10:01:36.342Z,101703.44
2022-11-05T10:04:08.398Z,101698.25
2022-11-05T10:06:35.710Z,101698.66
2022-11-05T10:09:08.036Z,101672.66
2022-11-05T10:11:41.122Z,101653.97
2022-11-05T10:14:17.197Z,101704.06
2022-11-05T10:16:44.046Z,101701.50
2022-11-05T10:19:24.490Z,101655.03
2022-11-05T10:22:10.968Z,101713.53
2022-11-05T10:24:55.433Z,101638.69
2022-11-05T10:27:32.128Z,101711.66
2022-11-05T10:29:58.659Z,101721.22
2022-11-05T10:32:35.637Z,101711.88
2022-11-05T10:35:05.025Z,101646.19
2022-11-05T10:37:31.918Z,101724.28
2022-11-05T10:39:58.441Z,101700.97
2022-11-05T10:42:36.912Z,101727.25
2022-11-05T10:45:25.774Z,101723.25
2022-11-05T10:48:02.060Z,101725.22
2022-11-05T10:50:29.640Z,101722.94
2022-11-05T10:53:32.754Z,101720.50
2022-11-05T10:55:59.260Z,101714.94
2022-11-05T10:58:28.948Z,101722.72
2022-11-05T11:00:55.293Z,101720.34
2022-11-05T11:03:35.350Z,101716.34
2022-11-05T11:06:07.652Z,101689.66
2022-11-05T11:08:35.666Z,101711.97
2022-11-05T11:11:07.948Z,101707.81
2022-11-05T11:14:03.763Z,101717.41
2022-11-05T11:16:36.054Z,101715.53
2022-11-05T11:19:03.206Z,101695.38
2022-11-05T11:21:31.612Z,101714.25
2022-11-05T11:24:00.774Z,101712.53
2022-11-05T11:26:34.658Z,101721.03
2022-11-05T11:29:16.923Z,101717.09
2022-11-05T11:31:43.332Z,101699.50
2022-11-05T11:34:22.262Z,101703.34
2022-11-05T11:36:55.508Z,101713.38
2022-11-05T11:39:24.405Z,101697.13
2022-11-05T11:41:53.779Z,101709.44
2022-11-05T11:44:26.909Z,101657.69
2022-11-05T11:46:56.616Z,101719.56
2022-11-05T11:49:46.629Z,101700.44
2022-11-05T11:52:19.352Z,101686.63
2022-11-05T11:54:45.763Z,101690.91
2022-11-05T11:57:23.978Z,101693.94
2022-11-05T12:00:08.328Z,101640.28
2022-11-05T12:02:54.791Z,101680.69
2022-11-05T12:05:34.413Z,101707.56
2022-11-05T12:08:28.113Z,101699.56
2022-11-05T12:11:04.636Z,101691.81
2022-11-05T12:13:39.018Z,101698.91
2022-11-05T12:16:25.337Z,101666.31
2022-11-05T12:19:06.107Z,101667.28
2022-11-05T12:21:52.961Z,101660.00
2022-11-05T12:24:40.906Z,101684.94
2022-11-05T12:27:19.274Z,101689.66
2022-11-05T12:30:10.057Z,101685.91
2022-11-05T12:33:06.775Z,101678.84
2022-11-05T12:36:03.754Z,101671.38
2022-11-05T12:38:30.002Z,101670.56
2022-11-05T12:41:15.223Z,101684.84
2022-11-05T12:43:56.825Z,101679.09
2022-11-05T12:46:26.079Z,101680.06
2022-11-05T12:49:04.656Z,101684.66
2022-11-05T12:51:51.139Z,101669.78
2022-11-05T12:54:25.858Z,101677.59
2022-11-05T12:57:01.680Z,101663.72
2022-11-05T12:59:37.495Z,101631.47
2022-11-05T13:02:18.989Z,101652.66
2022-11-05T13:05:17.554Z,101670.06
2022-11-05T13:07:53.246Z,101642.09
2022-11-05T13:10:31.672Z,101666.25
2022-11-05T13:13:19.138Z,101667.25
2022-11-05T13:15:55.181Z,101633.78
2022-11-05T13:18:23.949Z,101650.50
2022-11-05T13:20:52.251Z,101639.22
2022-11-05T13:23:32.414Z,101639.41
2022-11-05T13:26:13.417Z,101614.94
2022-11-05T13:29:01.795Z,101612.81
2022-11-05T13:31:34.823Z,101620.19
2022-11-05T13:34:04.472Z,101634.19
2022-11-05T13:36:52.442Z,101606.84
2022-11-05T13:39:29.847Z,101604.59
2022-11-05T13:42:15.188Z,101629.38
2022-11-05T13:44:59.505Z,101614.66
2022-11-05T13:47:53.817Z,101625.75
2022-11-05T13:50:51.143Z,101618.94
2022-11-05T13:53:42.668Z,101623.00
2022-11-05T13:56:31.250Z,101623.97
2022-11-05T13:59:04.855Z,101620.56
2022-11-05T14:01:53.066Z,101621.13
2022-11-05T14:04:31.090Z,101621.94
2022-11-05T14:07:12.813Z,101633.22
2022-11-05T14:09:40.319Z,101620.19
2022-11-05T14:12:17.015Z,101625.13
2022-11-05T14:14:44.896Z,101633.41
2022-11-05T14:17:22.636Z,101635.66
2022-11-05T14:20:02.731Z,101634.81
2022-11-05T14:22:32.135Z,101631.53
2022-11-05T14:24:59.660Z,101619.94
2022-11-05T14:27:34.106Z,101611.91
2022-11-05T14:30:00.521Z,101556.47
2022-11-05T14:32:42.514Z,101624.91
2022-11-05T14:35:14.899Z,101631.25
2022-11-05T14:37:42.413Z,101620.47
2022-11-05T14:40:38.331Z,101613.44
2022-11-05T14:43:19.289Z,101635.97
2022-11-05T14:46:03.429Z,101614.66
2022-11-05T14:48:43.972Z,101619.13
2022-11-05T14:51:38.211Z,101619.88
2022-11-05T14:54:22.944Z,101634.22
2022-11-05T14:56:57.952Z,101618.63
2022-11-05T14:59:24.247Z,101631.78
2022-11-05T15:01:50.612Z,101630.97
2022-11-05T15:04:31.455Z,101610.78
2022-11-05T15:07:04.174Z,101624.69
2022-11-05T15:09:56.243Z,101620.25
2022-11-05T15:12:42.531Z,101611.72
2022-11-05T15:15:27.918Z,101614.25
2022-11-05T15:18:16.854Z,101615.72
2022-11-05T15:20:46.107Z,101602.59
2022-11-05T15:23:15.849Z,101579.19
2022-11-05T15:25:53.120Z,101611.75
2022-11-05T15:28:36.525Z,101620.66
2022-11-05T15:31:05.822Z,101561.97
2022-11-05T15:33:32.748Z,101589.56
2022-11-05T15:36:20.850Z,101605.59
2022-11-05T15:39:08.232Z,101594.44
2022-11-05T15:41:34.489Z,101604.53
2022-11-05T15:44:02.619Z,101596.47
2022-11-05T15:46:29.197Z,101602.59
2022-11-05T15:48:58.972Z,101569.00
2022-11-05T15:51:26.154Z,101584.22
2022-11-05T15:56:45.310Z,101568.13
2022-11-05T15:59:17.268Z,101586.38
2022-11-05T16:01:52.314Z,101597.66
2022-11-05T16:04:26.256Z,101595.34
2022-11-05T16:06:54.893Z,101583.41
2022-11-05T16:09:27.174Z,101580.75
2022-11-05T16:12:19.677Z,101595.19
2022-11-05T16:14:59.175Z,101590.31
2022-11-05T16:17:27.827Z,101596.69
2022-11-05T16:19:54.617Z,101596.19
2022-11-05T16:22:21.083Z,101583.47
2022-11-05T16:24:48.083Z,101570.13
2022-11-05T16:27:23.497Z,101556.75
2022-11-05T16:29:57.104Z,101568.41
2022-11-05T16:32:31.362Z,101575.97
2022-11-05T16:35:03.618Z,101574.78
2022-11-05T16:37:36.726Z,101575.06
2022-11-05T16:40:06.102Z,101546.44
2022-11-05T16:42:32.361Z,101587.25
2022-11-05T16:44:58.719Z,101555.50
2022-11-05T16:47:26.298Z,101569.81
2022-11-05T16:49:52.686Z,101538.13
2022-11-05T16:52:19.067Z,101568.56
2022-11-05T16:54:45.488Z,101525.44
2022-11-05T16:57:23.639Z,101575.63
2022-11-05T16:59:50.009Z,101576.19
2022-11-05T17:02:16.552Z,101557.41
2022-11-05T17:04:42.980Z,101567.13
2022-11-05T17:07:09.349Z,101522.13
2022-11-05T17:09:35.702Z,101570.19
2022-11-05T17:12:02.397Z,101578.50
2022-11-05T17:14:28.821Z,101570.56
2022-11-05T17:16:55.192Z,101531.00
2022-11-05T17:19:21.573Z,101535.22
2022-11-05T17:21:48.426Z,101565.66
2022-11-05T17:24:14.787Z,101540.66
2022-11-05T17:26:41.143Z,101577.59
2022-11-05T17:29:07.514Z,101496.75
2022-11-05T17:31:33.887Z,101567.47
2022-11-05T17:34:00.427Z,101585.47
2022-11-05T17:36:27.125Z,101585.16
2022-11-05T17:38:53.640Z,101601.13
2022-11-05T17:41:21.987Z,101601.19
2022-11-05T17:43:53.214Z,101603.81
2022-11-05T17:46:19.831Z,101599.34
2022-11-05T17:48:46.384Z,101571.41
2022-11-05T17:51:18.419Z,101611.19
2022-11-05T17:53:45.482Z,101611.59
2022-11-05T17:56:22.149Z,101616.66
2022-11-05T17:58:55.364Z,101613.25
2022-11-05T18:01:30.370Z,101602.63
2022-11-05T18:03:56.868Z,101581.66
2022-11-05T18:06:23.418Z,101610.41
2022-11-05T18:08:49.845Z,101577.94
2022-11-05T18:11:16.365Z,101582.69
2022-11-05T18:13:42.786Z,101587.34
2022-11-05T18:16:09.480Z,101598.78
2022-11-05T18:18:35.888Z,101589.03
2022-11-05T18:21:02.336Z,101601.81
2022-11-05T18:23:28.720Z,101543.84
2022-11-05T18:25:55.088Z,101576.06
2022-11-05T18:28:21.470Z,101575.44
2022-11-05T18:30:47.889Z,101570.16
2022-11-05T18:33:14.507Z,101576.53
2022-11-05T18:35:44.756Z,101555.25
2022-11-05T18:38:11.542Z,101575.53
2022-11-05T18:40:38.090Z,101558.78
2022-11-05T18:43:04.486Z,101522.59
2022-11-05T18:45:31.891Z,101541.09
2022-11-05T18:48:00.242Z,101581.53
2022-11-05T18:50:27.572Z,101563.44
2022-11-05T18:52:54.038Z,101508.94
2022-11-05T18:55:20.724Z,101543.94
2022-11-05T18:57:47.209Z,101544.81
2022-11-05T19:00:14.227Z,101543.28
2022-11-05T19:02:40.695Z,101513.38
2022-11-05T19:05:28.060Z,101539.94
2022-11-05T19:07:54.113Z,101530.81
2022-11-05T19:10:20.484Z,101525.41
2022-11-05T19:12:46.863Z,101498.09
2022-11-05T19:15:13.251Z,101466.09
2022-11-05T19:17:39.617Z,101510.72
2022-11-05T19:20:06.843Z,101485.59
2022-11-05T19:22:33.272Z,101502.00
2022-11-05T19:24:59.648Z,101450.03
2022-11-05T19:27:26.007Z,101482.84
2022-11-05T19:29:52.428Z,101496.75
2022-11-05T19:32:18.854Z,101499.22
2022-11-05T19:34:45.225Z,101502.47
2022-11-05T19:37:12.271Z,101494.22
2022-11-05T19:39:40.125Z,101483.16
2022-11-05T19:42:06.883Z,101507.63
2022-11-05T19:44:33.304Z,101494.69
2022-11-05T19:46:59.733Z,101487.50
2022-11-05T19:49:28.125Z,101469.06
2022-11-05T19:51:54.537Z,101490.63
2022-11-05T19:54:20.901Z,101488.25
2022-11-05T19:56:49.680Z,101479.66
2022-11-05T19:59:16.045Z,101467.97
2022-11-05T20:01:42.807Z,101495.56
2022-11-05T20:04:09.695Z,101474.63
2022-11-05T20:06:38.737Z,101482.06
2022-11-05T20:09:20.945Z,101488.22
2022-11-05T20:11:49.242Z,101476.34
2022-11-05T20:14:15.645Z,101488.59
2022-11-05T20:16:42.724Z,101485.84
2022-11-05T20:19:11.691Z,101474.66
2022-11-05T20:21:38.064Z,101468.22
2022-11-05T20:24:04.592Z,101456.25
2022-11-05T20:26:31.634Z,101441.00
2022-11-05T20:28:58.255Z,101467.63
2022-11-05T20:31:25.195Z,101478.75
2022-11-05T20:33:52.047Z,101465.53
2022-11-05T20:36:21.989Z,101477.31
2022-11-05T20:38:52.528Z,101482.34
2022-11-05T20:41:19.143Z,101462.63
2022-11-05T20:43:46.702Z,101457.97
2022-11-05T20:46:15.496Z,101460.75
2022-11-05T20:48:42.813Z,101416.25
2022-11-05T20:51:12.223Z,101473.72
2022-11-05T20:53:39.030Z,101472.19
2022-11-05T20:56:09.984Z,101471.53
2022-11-05T20:58:37.590Z,101491.44
2022-11-05T21:01:05.129Z,101494.19
2022-11-05T21:03:31.594Z,101502.66
2022-11-05T21:06:00.761Z,101483.56
2022-11-05T21:08:27.903Z,101459.19
2022-11-05T21:10:55.294Z,101478.66
2022-11-05T21:13:22.388Z,101495.50
2022-11-05T21:15:50.888Z,101493.78
2022-11-05T21:18:18.461Z,101492.16
2022-11-05T21:20:45.899Z,101492.56
2022-11-05T21:23:13.010Z,101496.13
2022-11-05T21:25:40.556Z,101479.59
2022-11-05T21:28:07.950Z,101486.28
2022-11-05T21:30:36.508Z,101479.50
2022-11-05T21:33:05.101Z,101465.31
2022-11-05T21:35:31.735Z,101444.44
2022-11-05T21:37:58.230Z,101476.06
2022-11-05T21:40:24.615Z,101463.97
2022-11-05T21:42:51.002Z,101462.28
2022-11-05T21:45:17.497Z,101460.47
2022-11-05T21:47:43.946Z,101445.63
2022-11-05T21:50:10.414Z,101450.00
2022-11-05T21:52:55.427Z,101454.50
2022-11-05T21:55:40.492Z,101449.59
2022-11-05T21:58:32.705Z,101454.34
2022-11-05T22:01:00.311Z,101434.78
2022-11-05T22:03:26.915Z,101428.53
2022-11-05T22:05:53.691Z,101436.94
2022-11-05T22:08:20.046Z,101406.91
2022-11-05T22:10:46.428Z,101456.41
2022-11-05T22:13:12.810Z,101446.63
2022-11-05T22:15:39.217Z,101426.84
2022-11-05T22:18:05.625Z,101397.78
2022-11-05T22:20:31.991Z,101416.47
2022-11-05T22:22:58.368Z,101417.84
2022-11-05T22:25:24.738Z,101430.94
2022-11-05T22:27:51.111Z,101428.44
2022-11-05T22:30:17.498Z,101437.66
2022-11-05T22:32:44.026Z,101426.03
2022-11-05T22:35:10.477Z,101426.22
2022-11-05T22:37:36.867Z,101434.72
2022-11-05T22:40:03.667Z,101428.09
2022-11-05T22:42:30.100Z,101428.72
2022-11-05T22:44:58.100Z,101413.13
2022-11-05T22:47:24.459Z,101427.59
2022-11-05T22:49:51.029Z,101415.19
2022-11-05T22:52:17.840Z,101416.25
2022-11-05T22:54:44.198Z,101421.25
2022-11-05T22:57:10.590Z,101389.03
2022-11-05T22:59:37.022Z,101377.94
2022-11-05T23:02:09.177Z,101399.66
2022-11-05T23:04:36.392Z,101382.31
2022-11-05T23:07:27.077Z,101400.03
2022-11-05T23:10:12.719Z,101386.69
2022-11-05T23:12:39.076Z,101397.59
2022-11-05T23:15:07.479Z,101408.09
2022-11-05T23:17:52.545Z,101385.44
2022-11-05T23:20:41.605Z,101405.88
2022-11-05T23:23:30.684Z,101391.94
2022-11-05T23:25:58.644Z,101389.06
2022-11-05T23:28:25.258Z,101382.78
2022-11-05T23:31:10.301Z,101374.25
2022-11-05T23:33:37.157Z,101394.13
2022-11-05T23:36:22.329Z,101397.66
2022-11-05T23:38:48.703Z,101382.78
2022-11-05T23:41:33.701Z,101385.53
2022-11-05T23:44:18.649Z,101370.66
2022-11-05T23:47:03.694Z,101384.56
2022-11-05T23:49:30.086Z,101370.41
2022-11-05T23:51:56.495Z,101375.91
2022-11-05T23:54:22.940Z,101383.16
2022-11-05T23:56:49.302Z,101343.44
2022-11-05T23:59:15.662Z,101361.47
